sensor_id;sensor_type;location;lat;lon;timestamp;P1;durP1;ratioP1;P2;durP2;ratioP2
11287;SDS011;5700;50.996;7.044;2023-03-25T00:02:27;2.30;;;0.50;;
11287;SDS011;5700;50.996;7.044;2023-03-25T00:05:29;0.80;;;0.40;;
11287;SDS011;5700;50.996;7.044;2023-03-25T00:08:31;0.70;;;0.60;;
11287;SDS011;5700;50.996;7.044;2023-03-25T00:11:33;4.78;;;1.05;;
11287;SDS011;5700;50.996;7.044;2023-03-25T00:14:35;1.80;;;0.57;;
11287;SDS011;5700;50.996;7.044;2023-03-25T00:17:36;2.45;;;0.55;;
11287;SDS011;5700;50.996;7.044;2023-03-25T00:20:38;2.83;;;0.68;;
11287;SDS011;5700;50.996;7.044;2023-03-25T00:23:41;4.18;;;0.60;;
11287;SDS011;5700;50.996;7.044;2023-03-25T00:26:42;4.57;;;0.75;;
11287;SDS011;5700;50.996;7.044;2023-03-25T00:29:45;5.15;;;0.68;;
11287;SDS011;5700;50.996;7.044;2023-03-25T00:32:46;2.42;;;0.85;;
11287;SDS011;5700;50.996;7.044;2023-03-25T00:35:50;3.85;;;1.08;;
11287;SDS011;5700;50.996;7.044;2023-03-25T00:38:54;3.65;;;1.08;;
11287;SDS011;5700;50.996;7.044;2023-03-25T00:41:56;2.47;;;0.93;;
11287;SDS011;5700;50.996;7.044;2023-03-25T00:44:57;1.73;;;0.80;;
11287;SDS011;5700;50.996;7.044;2023-03-25T00:47:59;4.03;;;1.10;;
11287;SDS011;5700;50.996;7.044;2023-03-25T00:51:01;1.55;;;0.85;;
11287;SDS011;5700;50.996;7.044;2023-03-25T00:54:07;3.20;;;0.70;;
11287;SDS011;5700;50.996;7.044;2023-03-25T00:57:10;2.63;;;1.00;;
11287;SDS011;5700;50.996;7.044;2023-03-25T01:00:13;5.75;;;0.77;;
11287;SDS011;5700;50.996;7.044;2023-03-25T01:03:15;1.45;;;0.70;;
11287;SDS011;5700;50.996;7.044;2023-03-25T01:06:17;5.80;;;1.15;;
11287;SDS011;5700;50.996;7.044;2023-03-25T01:09:21;3.53;;;0.90;;
11287;SDS011;5700;50.996;7.044;2023-03-25T01:12:23;6.38;;;0.85;;
11287;SDS011;5700;50.996;7.044;2023-03-25T01:15:26;4.82;;;0.80;;
11287;SDS011;5700;50.996;7.044;2023-03-25T01:18:27;1.38;;;0.75;;
11287;SDS011;5700;50.996;7.044;2023-03-25T01:21:29;1.45;;;0.55;;
11287;SDS011;5700;50.996;7.044;2023-03-25T01:24:34;2.95;;;0.52;;
11287;SDS011;5700;50.996;7.044;2023-03-25T01:27:35;4.47;;;0.50;;
11287;SDS011;5700;50.996;7.044;2023-03-25T01:30:36;1.83;;;0.50;;
11287;SDS011;5700;50.996;7.044;2023-03-25T01:33:38;2.08;;;0.60;;
11287;SDS011;5700;50.996;7.044;2023-03-25T01:36:39;1.40;;;0.45;;
11287;SDS011;5700;50.996;7.044;2023-03-25T01:39:46;2.92;;;0.60;;
11287;SDS011;5700;50.996;7.044;2023-03-25T01:42:48;3.22;;;0.60;;
11287;SDS011;5700;50.996;7.044;2023-03-25T01:45:49;1.98;;;0.77;;
11287;SDS011;5700;50.996;7.044;2023-03-25T01:48:50;1.17;;;0.70;;
11287;SDS011;5700;50.996;7.044;2023-03-25T01:51:53;2.13;;;0.50;;
11287;SDS011;5700;50.996;7.044;2023-03-25T01:54:58;1.13;;;0.70;;
11287;SDS011;5700;50.996;7.044;2023-03-25T01:58:00;3.30;;;1.23;;
11287;SDS011;5700;50.996;7.044;2023-03-25T02:01:06;2.67;;;0.52;;
11287;SDS011;5700;50.996;7.044;2023-03-25T02:04:10;2.58;;;0.68;;
11287;SDS011;5700;50.996;7.044;2023-03-25T02:07:12;2.65;;;0.63;;
11287;SDS011;5700;50.996;7.044;2023-03-25T02:10:17;6.60;;;0.60;;
11287;SDS011;5700;50.996;7.044;2023-03-25T02:13:18;1.40;;;0.80;;
11287;SDS011;5700;50.996;7.044;2023-03-25T02:16:23;0.45;;;0.30;;
11287;SDS011;5700;50.996;7.044;2023-03-25T02:22:58;2.08;;;0.50;;
11287;SDS011;5700;50.996;7.044;2023-03-25T02:26:19;1.38;;;0.50;;
11287;SDS011;5700;50.996;7.044;2023-03-25T02:29:47;3.80;;;0.70;;
11287;SDS011;5700;50.996;7.044;2023-03-25T02:33:03;2.47;;;0.80;;
11287;SDS011;5700;50.996;7.044;2023-03-25T02:39:49;2.80;;;0.50;;
11287;SDS011;5700;50.996;7.044;2023-03-25T02:42:55;3.03;;;0.93;;
11287;SDS011;5700;50.996;7.044;2023-03-25T02:46:03;3.33;;;0.73;;
11287;SDS011;5700;50.996;7.044;2023-03-25T02:49:08;2.85;;;0.70;;
11287;SDS011;5700;50.996;7.044;2023-03-25T02:52:12;1.92;;;0.57;;
11287;SDS011;5700;50.996;7.044;2023-03-25T02:55:17;0.77;;;0.50;;
11287;SDS011;5700;50.996;7.044;2023-03-25T02:58:20;3.88;;;0.90;;
11287;SDS011;5700;50.996;7.044;2023-03-25T03:01:23;2.35;;;0.80;;
11287;SDS011;5700;50.996;7.044;2023-03-25T03:04:25;3.13;;;1.00;;
11287;SDS011;5700;50.996;7.044;2023-03-25T03:07:28;1.95;;;0.60;;
11287;SDS011;5700;50.996;7.044;2023-03-25T03:10:34;2.53;;;0.70;;
11287;SDS011;5700;50.996;7.044;2023-03-25T03:13:48;1.75;;;0.68;;
11287;SDS011;5700;50.996;7.044;2023-03-25T03:16:57;1.15;;;0.80;;
11287;SDS011;5700;50.996;7.044;2023-03-25T03:20:04;2.42;;;0.63;;
11287;SDS011;5700;50.996;7.044;2023-03-25T03:23:15;3.22;;;0.90;;
11287;SDS011;5700;50.996;7.044;2023-03-25T03:26:25;3.13;;;0.70;;
11287;SDS011;5700;50.996;7.044;2023-03-25T03:29:31;4.68;;;1.08;;
11287;SDS011;5700;50.996;7.044;2023-03-25T03:32:36;3.40;;;1.23;;
11287;SDS011;5700;50.996;7.044;2023-03-25T03:35:43;2.78;;;0.63;;
11287;SDS011;5700;50.996;7.044;2023-03-25T03:38:50;2.78;;;0.60;;
11287;SDS011;5700;50.996;7.044;2023-03-25T03:41:57;2.05;;;0.88;;
11287;SDS011;5700;50.996;7.044;2023-03-25T03:45:03;3.80;;;0.70;;
11287;SDS011;5700;50.996;7.044;2023-03-25T03:48:07;4.53;;;1.10;;
11287;SDS011;5700;50.996;7.044;2023-03-25T03:51:13;3.22;;;0.60;;
11287;SDS011;5700;50.996;7.044;2023-03-25T03:54:17;1.98;;;0.63;;
11287;SDS011;5700;50.996;7.044;2023-03-25T03:57:23;6.35;;;0.80;;
11287;SDS011;5700;50.996;7.044;2023-03-25T04:00:27;3.13;;;0.90;;
11287;SDS011;5700;50.996;7.044;2023-03-25T04:03:33;2.47;;;0.63;;
11287;SDS011;5700;50.996;7.044;2023-03-25T04:06:38;4.07;;;1.05;;
11287;SDS011;5700;50.996;7.044;2023-03-25T04:09:43;2.65;;;0.80;;
11287;SDS011;5700;50.996;7.044;2023-03-25T04:12:55;1.88;;;0.90;;
11287;SDS011;5700;50.996;7.044;2023-03-25T04:15:58;4.80;;;1.15;;
11287;SDS011;5700;50.996;7.044;2023-03-25T04:19:00;6.30;;;1.25;;
11287;SDS011;5700;50.996;7.044;2023-03-25T04:22:03;1.60;;;0.70;;
11287;SDS011;5700;50.996;7.044;2023-03-25T04:25:06;6.43;;;1.00;;
11287;SDS011;5700;50.996;7.044;2023-03-25T04:28:09;4.03;;;1.00;;
11287;SDS011;5700;50.996;7.044;2023-03-25T04:31:13;2.55;;;0.75;;
11287;SDS011;5700;50.996;7.044;2023-03-25T04:34:15;2.15;;;0.70;;
11287;SDS011;5700;50.996;7.044;2023-03-25T04:37:19;3.78;;;1.08;;
11287;SDS011;5700;50.996;7.044;2023-03-25T04:40:21;3.92;;;0.88;;
11287;SDS011;5700;50.996;7.044;2023-03-25T04:43:25;0.98;;;0.75;;
11287;SDS011;5700;50.996;7.044;2023-03-25T04:46:27;5.00;;;1.05;;
11287;SDS011;5700;50.996;7.044;2023-03-25T04:49:28;1.50;;;0.65;;
11287;SDS011;5700;50.996;7.044;2023-03-25T04:52:30;2.35;;;0.80;;
11287;SDS011;5700;50.996;7.044;2023-03-25T04:55:32;2.78;;;0.75;;
11287;SDS011;5700;50.996;7.044;2023-03-25T04:58:35;3.40;;;0.70;;
11287;SDS011;5700;50.996;7.044;2023-03-25T05:01:36;1.75;;;1.00;;
11287;SDS011;5700;50.996;7.044;2023-03-25T05:04:41;4.22;;;1.05;;
11287;SDS011;5700;50.996;7.044;2023-03-25T05:07:46;3.72;;;1.05;;
11287;SDS011;5700;50.996;7.044;2023-03-25T05:10:49;0.73;;;0.52;;
11287;SDS011;5700;50.996;7.044;2023-03-25T05:13:52;4.32;;;1.17;;
11287;SDS011;5700;50.996;7.044;2023-03-25T05:16:54;1.27;;;0.77;;
11287;SDS011;5700;50.996;7.044;2023-03-25T05:19:58;3.03;;;0.98;;
11287;SDS011;5700;50.996;7.044;2023-03-25T05:22:59;1.33;;;0.73;;
11287;SDS011;5700;50.996;7.044;2023-03-25T05:26:01;3.15;;;0.77;;
11287;SDS011;5700;50.996;7.044;2023-03-25T05:29:04;2.25;;;0.60;;
11287;SDS011;5700;50.996;7.044;2023-03-25T05:32:07;4.43;;;0.90;;
11287;SDS011;5700;50.996;7.044;2023-03-25T05:35:08;2.38;;;0.55;;
11287;SDS011;5700;50.996;7.044;2023-03-25T05:38:10;1.55;;;0.65;;
11287;SDS011;5700;50.996;7.044;2023-03-25T05:41:15;1.73;;;0.60;;
11287;SDS011;5700;50.996;7.044;2023-03-25T05:44:18;3.08;;;0.82;;
11287;SDS011;5700;50.996;7.044;2023-03-25T05:47:20;8.40;;;1.05;;
11287;SDS011;5700;50.996;7.044;2023-03-25T05:50:22;1.25;;;0.60;;
11287;SDS011;5700;50.996;7.044;2023-03-25T05:53:23;4.80;;;1.10;;
11287;SDS011;5700;50.996;7.044;2023-03-25T05:56:25;5.60;;;0.98;;
11287;SDS011;5700;50.996;7.044;2023-03-25T05:59:27;3.58;;;0.73;;
11287;SDS011;5700;50.996;7.044;2023-03-25T06:02:29;2.70;;;0.80;;
11287;SDS011;5700;50.996;7.044;2023-03-25T06:05:31;6.35;;;0.77;;
11287;SDS011;5700;50.996;7.044;2023-03-25T06:08:33;6.85;;;0.95;;
11287;SDS011;5700;50.996;7.044;2023-03-25T06:11:35;8.32;;;1.17;;
11287;SDS011;5700;50.996;7.044;2023-03-25T06:14:47;4.20;;;0.77;;
11287;SDS011;5700;50.996;7.044;2023-03-25T06:17:53;1.92;;;0.77;;
11287;SDS011;5700;50.996;7.044;2023-03-25T06:20:55;2.53;;;0.90;;
11287;SDS011;5700;50.996;7.044;2023-03-25T06:23:58;4.05;;;1.02;;
11287;SDS011;5700;50.996;7.044;2023-03-25T06:27:00;6.40;;;1.73;;
11287;SDS011;5700;50.996;7.044;2023-03-25T06:30:03;4.57;;;1.02;;
11287;SDS011;5700;50.996;7.044;2023-03-25T06:33:05;6.20;;;1.20;;
11287;SDS011;5700;50.996;7.044;2023-03-25T06:36:09;7.80;;;1.15;;
11287;SDS011;5700;50.996;7.044;2023-03-25T06:39:11;5.10;;;1.27;;
11287;SDS011;5700;50.996;7.044;2023-03-25T06:42:13;7.82;;;1.20;;
11287;SDS011;5700;50.996;7.044;2023-03-25T06:45:15;2.40;;;0.85;;
11287;SDS011;5700;50.996;7.044;2023-03-25T06:48:17;2.55;;;0.85;;
11287;SDS011;5700;50.996;7.044;2023-03-25T06:51:18;3.97;;;0.98;;
11287;SDS011;5700;50.996;7.044;2023-03-25T06:54:21;6.40;;;1.13;;
11287;SDS011;5700;50.996;7.044;2023-03-25T06:57:23;2.20;;;0.82;;
11287;SDS011;5700;50.996;7.044;2023-03-25T07:00:25;2.85;;;0.57;;
11287;SDS011;5700;50.996;7.044;2023-03-25T07:03:27;2.92;;;0.60;;
11287;SDS011;5700;50.996;7.044;2023-03-25T07:06:28;2.53;;;0.70;;
11287;SDS011;5700;50.996;7.044;2023-03-25T07:09:31;2.10;;;0.47;;
11287;SDS011;5700;50.996;7.044;2023-03-25T07:12:32;1.33;;;0.45;;
11287;SDS011;5700;50.996;7.044;2023-03-25T07:15:35;2.92;;;0.60;;
11287;SDS011;5700;50.996;7.044;2023-03-25T07:18:37;1.77;;;0.60;;
11287;SDS011;5700;50.996;7.044;2023-03-25T07:21:38;3.15;;;0.90;;
11287;SDS011;5700;50.996;7.044;2023-03-25T07:24:40;3.95;;;1.15;;
11287;SDS011;5700;50.996;7.044;2023-03-25T07:27:41;0.80;;;0.50;;
11287;SDS011;5700;50.996;7.044;2023-03-25T07:30:44;0.70;;;0.50;;
11287;SDS011;5700;50.996;7.044;2023-03-25T07:33:45;6.43;;;0.93;;
11287;SDS011;5700;50.996;7.044;2023-03-25T07:36:47;0.55;;;0.40;;
11287;SDS011;5700;50.996;7.044;2023-03-25T07:39:48;0.68;;;0.50;;
11287;SDS011;5700;50.996;7.044;2023-03-25T07:42:50;4.40;;;0.47;;
11287;SDS011;5700;50.996;7.044;2023-03-25T07:45:52;2.72;;;0.75;;
11287;SDS011;5700;50.996;7.044;2023-03-25T07:48:54;2.45;;;0.85;;
11287;SDS011;5700;50.996;7.044;2023-03-25T07:51:55;5.00;;;0.60;;
11287;SDS011;5700;50.996;7.044;2023-03-25T07:54:57;1.08;;;0.70;;
11287;SDS011;5700;50.996;7.044;2023-03-25T07:57:59;0.65;;;0.47;;
11287;SDS011;5700;50.996;7.044;2023-03-25T08:01:03;2.50;;;1.05;;
11287;SDS011;5700;50.996;7.044;2023-03-25T08:04:05;2.08;;;0.77;;
11287;SDS011;5700;50.996;7.044;2023-03-25T08:07:06;2.80;;;0.50;;
11287;SDS011;5700;50.996;7.044;2023-03-25T08:10:08;2.28;;;0.77;;
11287;SDS011;5700;50.996;7.044;2023-03-25T08:13:10;3.47;;;0.95;;
11287;SDS011;5700;50.996;7.044;2023-03-25T08:16:13;3.10;;;0.98;;
11287;SDS011;5700;50.996;7.044;2023-03-25T08:19:15;4.57;;;0.47;;
11287;SDS011;5700;50.996;7.044;2023-03-25T08:22:16;2.05;;;0.40;;
11287;SDS011;5700;50.996;7.044;2023-03-25T08:25:18;2.58;;;1.00;;
11287;SDS011;5700;50.996;7.044;2023-03-25T08:28:19;0.50;;;0.32;;
11287;SDS011;5700;50.996;7.044;2023-03-25T08:31:23;1.95;;;0.68;;
11287;SDS011;5700;50.996;7.044;2023-03-25T08:34:25;0.63;;;0.30;;
11287;SDS011;5700;50.996;7.044;2023-03-25T08:37:27;0.98;;;0.50;;
11287;SDS011;5700;50.996;7.044;2023-03-25T08:40:29;2.90;;;0.65;;
11287;SDS011;5700;50.996;7.044;2023-03-25T08:43:31;1.90;;;0.43;;
11287;SDS011;5700;50.996;7.044;2023-03-25T08:46:34;2.05;;;0.80;;
11287;SDS011;5700;50.996;7.044;2023-03-25T08:49:35;1.08;;;0.90;;
11287;SDS011;5700;50.996;7.044;2023-03-25T08:52:37;3.63;;;0.80;;
11287;SDS011;5700;50.996;7.044;2023-03-25T08:55:38;0.95;;;0.57;;
11287;SDS011;5700;50.996;7.044;2023-03-25T08:58:40;1.08;;;0.80;;
11287;SDS011;5700;50.996;7.044;2023-03-25T09:01:42;2.15;;;0.77;;
11287;SDS011;5700;50.996;7.044;2023-03-25T09:04:46;1.75;;;0.95;;
11287;SDS011;5700;50.996;7.044;2023-03-25T09:07:48;4.78;;;1.00;;
11287;SDS011;5700;50.996;7.044;2023-03-25T09:10:49;3.58;;;0.90;;
11287;SDS011;5700;50.996;7.044;2023-03-25T09:13:51;3.90;;;0.73;;
11287;SDS011;5700;50.996;7.044;2023-03-25T09:16:53;3.72;;;0.77;;
11287;SDS011;5700;50.996;7.044;2023-03-25T09:19:55;5.68;;;1.00;;
11287;SDS011;5700;50.996;7.044;2023-03-25T09:22:56;4.50;;;0.90;;
11287;SDS011;5700;50.996;7.044;2023-03-25T09:25:58;4.72;;;0.85;;
11287;SDS011;5700;50.996;7.044;2023-03-25T09:29:00;4.90;;;0.60;;
11287;SDS011;5700;50.996;7.044;2023-03-25T09:32:03;3.08;;;1.05;;
11287;SDS011;5700;50.996;7.044;2023-03-25T09:35:05;6.15;;;0.65;;
11287;SDS011;5700;50.996;7.044;2023-03-25T09:38:07;5.85;;;0.88;;
11287;SDS011;5700;50.996;7.044;2023-03-25T09:41:16;2.65;;;0.85;;
11287;SDS011;5700;50.996;7.044;2023-03-25T09:44:25;4.00;;;0.70;;
11287;SDS011;5700;50.996;7.044;2023-03-25T09:47:29;4.43;;;0.80;;
11287;SDS011;5700;50.996;7.044;2023-03-25T09:50:33;3.90;;;1.77;;
11287;SDS011;5700;50.996;7.044;2023-03-25T09:53:36;3.90;;;1.35;;
11287;SDS011;5700;50.996;7.044;2023-03-25T09:56:39;2.03;;;0.55;;
11287;SDS011;5700;50.996;7.044;2023-03-25T09:59:43;2.63;;;0.70;;
11287;SDS011;5700;50.996;7.044;2023-03-25T10:02:50;4.40;;;1.42;;
11287;SDS011;5700;50.996;7.044;2023-03-25T10:09:18;5.05;;;1.05;;
11287;SDS011;5700;50.996;7.044;2023-03-25T10:12:31;4.80;;;1.08;;
11287;SDS011;5700;50.996;7.044;2023-03-25T10:15:38;5.30;;;1.48;;
11287;SDS011;5700;50.996;7.044;2023-03-25T10:18:44;11.27;;;1.67;;
11287;SDS011;5700;50.996;7.044;2023-03-25T10:21:52;4.65;;;1.20;;
11287;SDS011;5700;50.996;7.044;2023-03-25T10:24:57;6.70;;;1.38;;
11287;SDS011;5700;50.996;7.044;2023-03-25T10:27:59;9.50;;;1.05;;
11287;SDS011;5700;50.996;7.044;2023-03-25T10:31:02;3.60;;;1.30;;
11287;SDS011;5700;50.996;7.044;2023-03-25T10:34:09;2.92;;;0.70;;
11287;SDS011;5700;50.996;7.044;2023-03-25T10:37:15;1.52;;;0.80;;
11287;SDS011;5700;50.996;7.044;2023-03-25T10:40:21;4.47;;;0.98;;
11287;SDS011;5700;50.996;7.044;2023-03-25T10:43:24;1.90;;;0.90;;
11287;SDS011;5700;50.996;7.044;2023-03-25T10:46:28;1.17;;;0.60;;
11287;SDS011;5700;50.996;7.044;2023-03-25T10:49:33;1.08;;;0.60;;
11287;SDS011;5700;50.996;7.044;2023-03-25T10:52:36;3.45;;;1.35;;
11287;SDS011;5700;50.996;7.044;2023-03-25T10:55:37;2.95;;;1.08;;
11287;SDS011;5700;50.996;7.044;2023-03-25T10:58:41;2.47;;;0.60;;
11287;SDS011;5700;50.996;7.044;2023-03-25T11:01:44;5.55;;;0.80;;
11287;SDS011;5700;50.996;7.044;2023-03-25T11:04:47;1.92;;;0.77;;
11287;SDS011;5700;50.996;7.044;2023-03-25T11:07:52;3.03;;;0.90;;
11287;SDS011;5700;50.996;7.044;2023-03-25T11:10:55;6.70;;;1.05;;
11287;SDS011;5700;50.996;7.044;2023-03-25T11:13:59;10.13;;;1.73;;
11287;SDS011;5700;50.996;7.044;2023-03-25T11:17:03;2.08;;;1.20;;
11287;SDS011;5700;50.996;7.044;2023-03-25T11:20:15;1.35;;;0.52;;
11287;SDS011;5700;50.996;7.044;2023-03-25T11:23:21;3.58;;;0.50;;
11287;SDS011;5700;50.996;7.044;2023-03-25T11:26:26;1.17;;;0.50;;
11287;SDS011;5700;50.996;7.044;2023-03-25T11:29:29;1.55;;;1.00;;
11287;SDS011;5700;50.996;7.044;2023-03-25T11:32:32;5.05;;;0.93;;
11287;SDS011;5700;50.996;7.044;2023-03-25T11:35:37;2.85;;;0.65;;
11287;SDS011;5700;50.996;7.044;2023-03-25T11:38:45;4.97;;;0.80;;
11287;SDS011;5700;50.996;7.044;2023-03-25T11:41:47;4.30;;;1.13;;
11287;SDS011;5700;50.996;7.044;2023-03-25T11:44:49;3.20;;;0.75;;
11287;SDS011;5700;50.996;7.044;2023-03-25T11:47:52;1.30;;;0.45;;
11287;SDS011;5700;50.996;7.044;2023-03-25T11:51:00;2.72;;;0.57;;
11287;SDS011;5700;50.996;7.044;2023-03-25T11:54:04;2.78;;;0.55;;
11287;SDS011;5700;50.996;7.044;2023-03-25T11:57:10;2.30;;;1.30;;
11287;SDS011;5700;50.996;7.044;2023-03-25T12:00:25;5.05;;;1.15;;
11287;SDS011;5700;50.996;7.044;2023-03-25T12:03:31;4.88;;;1.00;;
11287;SDS011;5700;50.996;7.044;2023-03-25T12:06:35;3.88;;;1.42;;
11287;SDS011;5700;50.996;7.044;2023-03-25T12:09:37;6.75;;;1.73;;
11287;SDS011;5700;50.996;7.044;2023-03-25T12:12:56;4.28;;;1.80;;
11287;SDS011;5700;50.996;7.044;2023-03-25T12:16:05;3.25;;;0.82;;
11287;SDS011;5700;50.996;7.044;2023-03-25T12:19:15;1.38;;;0.68;;
11287;SDS011;5700;50.996;7.044;2023-03-25T12:22:28;7.10;;;0.70;;
11287;SDS011;5700;50.996;7.044;2023-03-25T12:25:41;0.73;;;0.55;;
11287;SDS011;5700;50.996;7.044;2023-03-25T12:28:52;4.93;;;1.33;;
11287;SDS011;5700;50.996;7.044;2023-03-25T12:32:05;3.85;;;1.83;;
11287;SDS011;5700;50.996;7.044;2023-03-25T12:35:18;7.30;;;1.40;;
11287;SDS011;5700;50.996;7.044;2023-03-25T12:38:28;4.25;;;1.05;;
11287;SDS011;5700;50.996;7.044;2023-03-25T12:41:37;2.50;;;1.05;;
11287;SDS011;5700;50.996;7.044;2023-03-25T12:44:46;4.18;;;1.27;;
11287;SDS011;5700;50.996;7.044;2023-03-25T12:47:55;9.85;;;0.82;;
11287;SDS011;5700;50.996;7.044;2023-03-25T12:51:00;4.72;;;1.10;;
11287;SDS011;5700;50.996;7.044;2023-03-25T12:54:10;5.05;;;1.40;;
11287;SDS011;5700;50.996;7.044;2023-03-25T12:57:32;4.70;;;1.50;;
11287;SDS011;5700;50.996;7.044;2023-03-25T13:00:41;4.65;;;1.00;;
11287;SDS011;5700;50.996;7.044;2023-03-25T13:03:51;4.22;;;1.40;;
11287;SDS011;5700;50.996;7.044;2023-03-25T13:07:01;1.58;;;0.75;;
11287;SDS011;5700;50.996;7.044;2023-03-25T13:10:06;3.50;;;0.68;;
11287;SDS011;5700;50.996;7.044;2023-03-25T13:13:12;3.60;;;1.27;;
11287;SDS011;5700;50.996;7.044;2023-03-25T13:16:17;3.83;;;1.15;;
11287;SDS011;5700;50.996;7.044;2023-03-25T13:19:19;4.13;;;0.82;;
11287;SDS011;5700;50.996;7.044;2023-03-25T13:22:23;0.40;;;0.40;;
11287;SDS011;5700;50.996;7.044;2023-03-25T13:25:30;5.82;;;0.90;;
11287;SDS011;5700;50.996;7.044;2023-03-25T13:28:36;2.55;;;0.75;;
11287;SDS011;5700;50.996;7.044;2023-03-25T13:31:39;3.72;;;0.80;;
11287;SDS011;5700;50.996;7.044;2023-03-25T13:34:42;2.17;;;0.68;;
11287;SDS011;5700;50.996;7.044;2023-03-25T13:37:47;9.30;;;1.25;;
11287;SDS011;5700;50.996;7.044;2023-03-25T13:40:56;5.75;;;1.20;;
11287;SDS011;5700;50.996;7.044;2023-03-25T13:44:06;2.40;;;0.60;;
11287;SDS011;5700;50.996;7.044;2023-03-25T13:47:13;6.60;;;0.77;;
11287;SDS011;5700;50.996;7.044;2023-03-25T13:50:21;7.93;;;1.45;;
11287;SDS011;5700;50.996;7.044;2023-03-25T13:53:26;4.93;;;1.30;;
11287;SDS011;5700;50.996;7.044;2023-03-25T13:56:36;1.60;;;0.77;;
11287;SDS011;5700;50.996;7.044;2023-03-25T14:00:06;1.10;;;0.70;;
11287;SDS011;5700;50.996;7.044;2023-03-25T14:03:21;3.17;;;1.30;;
11287;SDS011;5700;50.996;7.044;2023-03-25T14:06:39;6.70;;;1.48;;
11287;SDS011;5700;50.996;7.044;2023-03-25T14:09:54;3.60;;;1.15;;
11287;SDS011;5700;50.996;7.044;2023-03-25T14:13:04;7.85;;;1.80;;
11287;SDS011;5700;50.996;7.044;2023-03-25T14:16:08;2.15;;;0.90;;
11287;SDS011;5700;50.996;7.044;2023-03-25T14:19:12;7.35;;;1.20;;
11287;SDS011;5700;50.996;7.044;2023-03-25T14:22:16;5.28;;;1.20;;
11287;SDS011;5700;50.996;7.044;2023-03-25T14:25:18;2.70;;;1.10;;
11287;SDS011;5700;50.996;7.044;2023-03-25T14:28:30;7.72;;;1.67;;
11287;SDS011;5700;50.996;7.044;2023-03-25T14:31:34;4.10;;;1.05;;
11287;SDS011;5700;50.996;7.044;2023-03-25T14:34:35;4.07;;;1.50;;
11287;SDS011;5700;50.996;7.044;2023-03-25T14:37:37;7.30;;;1.00;;
11287;SDS011;5700;50.996;7.044;2023-03-25T14:40:48;6.80;;;1.38;;
11287;SDS011;5700;50.996;7.044;2023-03-25T14:43:56;5.63;;;1.10;;
11287;SDS011;5700;50.996;7.044;2023-03-25T14:50:30;5.75;;;1.42;;
11287;SDS011;5700;50.996;7.044;2023-03-25T14:53:33;6.80;;;1.33;;
11287;SDS011;5700;50.996;7.044;2023-03-25T14:56:36;4.38;;;0.85;;
11287;SDS011;5700;50.996;7.044;2023-03-25T14:59:43;3.58;;;1.20;;
11287;SDS011;5700;50.996;7.044;2023-03-25T15:02:49;3.65;;;0.95;;
11287;SDS011;5700;50.996;7.044;2023-03-25T15:05:52;2.53;;;1.00;;
11287;SDS011;5700;50.996;7.044;2023-03-25T15:08:55;3.47;;;0.90;;
11287;SDS011;5700;50.996;7.044;2023-03-25T15:11:59;5.70;;;1.02;;
11287;SDS011;5700;50.996;7.044;2023-03-25T15:15:06;2.63;;;0.90;;
11287;SDS011;5700;50.996;7.044;2023-03-25T15:25:20;3.38;;;0.77;;
11287;SDS011;5700;50.996;7.044;2023-03-25T15:28:23;5.80;;;1.15;;
11287;SDS011;5700;50.996;7.044;2023-03-25T15:31:37;3.28;;;0.82;;
11287;SDS011;5700;50.996;7.044;2023-03-25T15:34:50;3.40;;;0.90;;
11287;SDS011;5700;50.996;7.044;2023-03-25T15:38:07;3.05;;;0.70;;
11287;SDS011;5700;50.996;7.044;2023-03-25T15:41:23;4.47;;;0.90;;
11287;SDS011;5700;50.996;7.044;2023-03-25T15:44:37;2.03;;;0.85;;
11287;SDS011;5700;50.996;7.044;2023-03-25T15:51:23;6.22;;;1.20;;
11287;SDS011;5700;50.996;7.044;2023-03-25T15:54:33;5.30;;;1.00;;
11287;SDS011;5700;50.996;7.044;2023-03-25T15:57:38;2.65;;;1.00;;
11287;SDS011;5700;50.996;7.044;2023-03-25T16:00:43;1.92;;;0.90;;
11287;SDS011;5700;50.996;7.044;2023-03-25T16:03:48;7.40;;;1.30;;
11287;SDS011;5700;50.996;7.044;2023-03-25T16:06:56;2.72;;;0.90;;
11287;SDS011;5700;50.996;7.044;2023-03-25T16:10:04;2.25;;;1.15;;
11287;SDS011;5700;50.996;7.044;2023-03-25T16:13:12;2.63;;;1.17;;
11287;SDS011;5700;50.996;7.044;2023-03-25T16:16:22;4.78;;;1.25;;
11287;SDS011;5700;50.996;7.044;2023-03-25T16:19:26;4.25;;;1.15;;
11287;SDS011;5700;50.996;7.044;2023-03-25T16:22:32;4.38;;;1.52;;
11287;SDS011;5700;50.996;7.044;2023-03-25T16:25:37;8.73;;;1.60;;
11287;SDS011;5700;50.996;7.044;2023-03-25T16:28:40;2.20;;;1.30;;
11287;SDS011;5700;50.996;7.044;2023-03-25T16:31:49;3.28;;;0.70;;
11287;SDS011;5700;50.996;7.044;2023-03-25T16:34:54;3.30;;;0.70;;
11287;SDS011;5700;50.996;7.044;2023-03-25T16:37:56;3.00;;;0.90;;
11287;SDS011;5700;50.996;7.044;2023-03-25T16:40:58;3.80;;;1.05;;
11287;SDS011;5700;50.996;7.044;2023-03-25T16:44:01;2.85;;;0.93;;
11287;SDS011;5700;50.996;7.044;2023-03-25T16:47:02;6.43;;;1.00;;
11287;SDS011;5700;50.996;7.044;2023-03-25T16:50:05;2.28;;;0.70;;
11287;SDS011;5700;50.996;7.044;2023-03-25T16:53:13;10.88;;;1.83;;
11287;SDS011;5700;50.996;7.044;2023-03-25T16:56:20;3.47;;;1.00;;
11287;SDS011;5700;50.996;7.044;2023-03-25T16:59:23;5.00;;;0.90;;
11287;SDS011;5700;50.996;7.044;2023-03-25T17:02:28;4.50;;;1.13;;
11287;SDS011;5700;50.996;7.044;2023-03-25T17:05:32;7.90;;;1.77;;
11287;SDS011;5700;50.996;7.044;2023-03-25T17:08:51;4.60;;;1.27;;
11287;SDS011;5700;50.996;7.044;2023-03-25T17:11:54;3.80;;;1.10;;
11287;SDS011;5700;50.996;7.044;2023-03-25T17:14:59;3.75;;;0.88;;
11287;SDS011;5700;50.996;7.044;2023-03-25T17:18:06;4.30;;;2.30;;
11287;SDS011;5700;50.996;7.044;2023-03-25T17:21:19;5.38;;;1.42;;
11287;SDS011;5700;50.996;7.044;2023-03-25T17:24:25;10.68;;;8.75;;
11287;SDS011;5700;50.996;7.044;2023-03-25T17:27:31;13.30;;;8.15;;
11287;SDS011;5700;50.996;7.044;2023-03-25T17:30:37;7.13;;;3.28;;
11287;SDS011;5700;50.996;7.044;2023-03-25T17:33:41;5.70;;;2.78;;
11287;SDS011;5700;50.996;7.044;2023-03-25T17:36:55;14.25;;;7.15;;
11287;SDS011;5700;50.996;7.044;2023-03-25T17:39:57;4.93;;;2.90;;
11287;SDS011;5700;50.996;7.044;2023-03-25T17:43:00;4.95;;;1.70;;
11287;SDS011;5700;50.996;7.044;2023-03-25T17:46:02;3.55;;;1.73;;
11287;SDS011;5700;50.996;7.044;2023-03-25T17:49:09;4.75;;;2.10;;
11287;SDS011;5700;50.996;7.044;2023-03-25T17:52:15;6.05;;;1.77;;
11287;SDS011;5700;50.996;7.044;2023-03-25T17:55:19;6.50;;;1.75;;
11287;SDS011;5700;50.996;7.044;2023-03-25T17:58:21;5.50;;;1.55;;
11287;SDS011;5700;50.996;7.044;2023-03-25T18:01:22;4.38;;;1.45;;
11287;SDS011;5700;50.996;7.044;2023-03-25T18:04:24;5.40;;;1.30;;
11287;SDS011;5700;50.996;7.044;2023-03-25T18:07:27;4.70;;;1.27;;
11287;SDS011;5700;50.996;7.044;2023-03-25T18:10:28;6.20;;;1.65;;
11287;SDS011;5700;50.996;7.044;2023-03-25T18:13:30;2.33;;;0.93;;
11287;SDS011;5700;50.996;7.044;2023-03-25T18:16:32;4.15;;;1.10;;
11287;SDS011;5700;50.996;7.044;2023-03-25T18:19:33;4.35;;;0.98;;
11287;SDS011;5700;50.996;7.044;2023-03-25T18:22:36;2.38;;;0.90;;
11287;SDS011;5700;50.996;7.044;2023-03-25T18:25:37;5.38;;;1.45;;
11287;SDS011;5700;50.996;7.044;2023-03-25T18:28:39;3.40;;;1.48;;
11287;SDS011;5700;50.996;7.044;2023-03-25T18:31:41;4.18;;;1.80;;
11287;SDS011;5700;50.996;7.044;2023-03-25T18:34:43;9.30;;;2.65;;
11287;SDS011;5700;50.996;7.044;2023-03-25T18:37:47;12.60;;;5.35;;
11287;SDS011;5700;50.996;7.044;2023-03-25T18:40:49;18.85;;;10.18;;
11287;SDS011;5700;50.996;7.044;2023-03-25T18:43:51;10.65;;;3.85;;
11287;SDS011;5700;50.996;7.044;2023-03-25T18:46:53;8.77;;;2.50;;
11287;SDS011;5700;50.996;7.044;2023-03-25T18:49:54;5.03;;;1.88;;
11287;SDS011;5700;50.996;7.044;2023-03-25T18:52:57;5.68;;;2.50;;
11287;SDS011;5700;50.996;7.044;2023-03-25T18:55:59;13.70;;;5.10;;
11287;SDS011;5700;50.996;7.044;2023-03-25T18:59:00;6.32;;;2.30;;
11287;SDS011;5700;50.996;7.044;2023-03-25T19:02:02;13.93;;;3.33;;
11287;SDS011;5700;50.996;7.044;2023-03-25T19:05:04;4.32;;;1.30;;
11287;SDS011;5700;50.996;7.044;2023-03-25T19:08:09;4.57;;;1.77;;
11287;SDS011;5700;50.996;7.044;2023-03-25T19:11:14;2.13;;;1.33;;
11287;SDS011;5700;50.996;7.044;2023-03-25T19:14:15;6.45;;;2.40;;